createdAt,value
2023-03-06T00:01:54.760Z,101179.69
2023-03-06T00:04:02.171Z,101180.56
2023-03-06T00:06:07.324Z,101174.50
2023-03-06T00:08:12.212Z,101171.94
2023-03-06T00:10:18.672Z,101180.56
2023-03-06T00:12:23.436Z,101171.94
2023-03-06T00:14:30.160Z,101169.31
2023-03-06T00:16:34.974Z,101167.59
2023-03-06T00:18:40.421Z,101169.31
2023-03-06T00:20:47.909Z,101164.13
2023-03-06T00:22:52.880Z,101165.84
2023-03-06T00:24:57.820Z,101161.56
2023-03-06T00:27:02.526Z,101158.97
2023-03-06T00:29:07.313Z,101154.66
2023-03-06T00:31:12.078Z,101153.78
2023-03-06T00:33:16.928Z,101149.47
2023-03-06T00:35:21.812Z,101152.06
2023-03-06T00:37:29.492Z,101145.16
2023-03-06T00:39:34.630Z,101143.41
2023-03-06T00:41:42.311Z,101142.56
2023-03-06T00:43:47.346Z,101141.72
2023-03-06T00:45:52.192Z,101136.53
2023-03-06T00:47:57.063Z,101130.47
2023-03-06T00:50:01.944Z,101127.88
2023-03-06T00:52:07.672Z,101118.41
2023-03-06T00:54:14.986Z,101117.53
2023-03-06T00:56:20.076Z,101107.19
2023-03-06T00:58:24.941Z,101114.94
2023-03-06T01:00:29.870Z,101106.28
2023-03-06T01:02:34.844Z,101108.91
2023-03-06T01:04:40.136Z,101107.16
2023-03-06T01:06:45.041Z,101098.53
2023-03-06T01:08:49.865Z,101096.81
2023-03-06T01:10:57.217Z,101102.84
2023-03-06T01:13:01.928Z,101093.34
2023-03-06T01:15:08.347Z,101102.84
2023-03-06T01:17:14.243Z,101106.31
2023-03-06T01:19:19.300Z,101108.88
2023-03-06T01:21:24.203Z,101108.00
2023-03-06T01:23:29.102Z,101102.84
2023-03-06T01:25:33.881Z,101097.63
2023-03-06T01:27:41.515Z,101095.06
2023-03-06T01:29:46.684Z,101095.91
2023-03-06T01:31:51.501Z,101100.25
2023-03-06T01:33:56.561Z,101096.78
2023-03-06T01:36:01.294Z,101098.50
2023-03-06T01:38:05.935Z,101102.84
2023-03-06T01:40:13.573Z,101100.22
2023-03-06T01:42:18.822Z,101095.03
2023-03-06T01:44:26.389Z,101096.75
2023-03-06T01:46:44.115Z,101097.63
2023-03-06T01:48:51.696Z,101089.00
2023-03-06T01:51:00.090Z,101085.53
2023-03-06T01:53:06.290Z,101082.97
2023-03-06T01:55:14.687Z,101082.94
2023-03-06T01:57:23.768Z,101076.03
2023-03-06T01:59:32.296Z,101069.16
2023-03-06T02:01:37.941Z,101075.19
2023-03-06T02:03:46.704Z,101074.28
2023-03-06T02:05:52.033Z,101070.84
2023-03-06T02:07:58.213Z,101075.16
2023-03-06T02:10:03.089Z,101067.41
2023-03-06T02:12:12.397Z,101072.56
2023-03-06T02:14:20.114Z,101072.56
2023-03-06T02:16:30.950Z,101063.09
2023-03-06T02:18:37.215Z,101059.63
2023-03-06T02:20:48.931Z,101055.31
2023-03-06T02:23:01.071Z,101048.41
2023-03-06T02:25:12.472Z,101051.84
2023-03-06T02:27:20.567Z,101047.53
2023-03-06T02:29:31.224Z,101046.69
2023-03-06T02:31:36.980Z,101038.03
2023-03-06T02:33:41.910Z,101031.13
2023-03-06T02:35:50.296Z,101024.25
2023-03-06T02:37:57.316Z,101027.69
2023-03-06T02:40:15.144Z,101019.06
2023-03-06T02:42:26.093Z,101018.19
2023-03-06T02:44:31.664Z,101015.59
2023-03-06T02:46:36.516Z,101019.91
2023-03-06T02:48:41.723Z,101013.84
2023-03-06T02:50:47.461Z,101012.13
2023-03-06T02:52:52.277Z,101008.66
2023-03-06T02:54:57.106Z,100997.44
2023-03-06T02:57:01.922Z,100997.44
2023-03-06T02:59:09.285Z,100992.28
2023-03-06T03:01:14.727Z,100993.13
2023-03-06T03:03:20.372Z,100991.38
2023-03-06T03:05:25.317Z,100993.13
2023-03-06T03:07:30.277Z,100986.19
2023-03-06T03:09:37.398Z,100991.38
2023-03-06T03:11:42.781Z,100989.66
2023-03-06T03:13:47.679Z,100987.09
2023-03-06T03:16:04.280Z,100985.34
2023-03-06T03:18:10.277Z,100987.09
2023-03-06T03:20:18.398Z,100983.63
2023-03-06T03:22:25.336Z,100980.22
2023-03-06T03:24:30.340Z,100987.97
2023-03-06T03:26:37.585Z,100985.38
2023-03-06T03:28:42.670Z,100985.41
2023-03-06T03:30:48.146Z,100986.25
2023-03-06T03:32:55.674Z,100981.94
2023-03-06T03:35:00.773Z,100986.28
2023-03-06T03:37:05.665Z,100972.50
2023-03-06T03:39:10.843Z,100967.34
2023-03-06T03:41:16.240Z,100963.03
2023-03-06T03:43:21.409Z,100960.41
2023-03-06T03:45:26.352Z,100963.00
2023-03-06T03:47:31.186Z,100960.44
2023-03-06T03:49:38.624Z,100959.56
2023-03-06T03:51:45.243Z,100956.97
2023-03-06T03:53:50.430Z,100952.69
2023-03-06T03:55:55.281Z,100946.63
2023-03-06T03:58:00.319Z,100943.16
2023-03-06T04:00:05.824Z,100950.06
2023-03-06T04:02:12.365Z,100935.38
2023-03-06T04:04:17.272Z,100938.84
2023-03-06T04:06:24.638Z,100937.97
2023-03-06T04:08:30.191Z,100940.56
2023-03-06T04:10:35.143Z,100935.41
2023-03-06T04:12:40.734Z,100930.19
2023-03-06T04:14:45.593Z,100926.78
2023-03-06T04:16:51.391Z,100922.44
2023-03-06T04:18:56.398Z,100927.59
2023-03-06T04:21:01.558Z,100922.44
2023-03-06T04:23:08.907Z,100919.84
2023-03-06T04:25:14.199Z,100913.75
2023-03-06T04:27:19.261Z,100911.16
2023-03-06T04:29:24.029Z,100901.69
2023-03-06T04:31:28.804Z,100911.16
2023-03-06T04:33:34.885Z,100905.97
2023-03-06T04:35:39.980Z,100904.25
2023-03-06T04:37:44.907Z,100905.97
2023-03-06T04:39:53.844Z,100905.09
2023-03-06T04:41:58.664Z,100902.53
2023-03-06T04:44:03.499Z,100893.00
2023-03-06T04:46:08.691Z,100892.13
2023-03-06T04:48:16.155Z,100895.56
2023-03-06T04:50:22.305Z,100893.84
2023-03-06T04:52:27.107Z,100896.44
2023-03-06T04:54:31.969Z,100894.69
2023-03-06T04:56:42.689Z,100893.84
2023-03-06T04:58:47.868Z,100894.69
2023-03-06T05:00:52.588Z,100893.78
2023-03-06T05:02:57.671Z,100886.88
2023-03-06T05:05:02.555Z,100891.16
2023-03-06T05:07:07.502Z,100896.34
2023-03-06T05:09:12.364Z,100894.63
2023-03-06T05:11:17.213Z,100897.22
2023-03-06T05:13:24.955Z,100894.63
2023-03-06T05:15:29.648Z,100892.06
2023-03-06T05:17:34.326Z,100886.03
2023-03-06T05:19:39.236Z,100888.59
2023-03-06T05:21:48.805Z,100886.00
2023-03-06T05:23:53.585Z,100884.31
2023-03-06T05:25:58.301Z,100880.03
2023-03-06T05:28:03.106Z,100883.47
2023-03-06T05:30:14.638Z,100877.44
2023-03-06T05:32:20.140Z,100880.91
2023-03-06T05:34:25.085Z,100880.91
2023-03-06T05:36:29.823Z,100884.38
2023-03-06T05:38:35.783Z,100877.47
2023-03-06T05:40:42.842Z,100875.72
2023-03-06T05:42:47.830Z,100874.00
2023-03-06T05:44:52.861Z,100874.84
2023-03-06T05:47:02.551Z,100874.00
2023-03-06T05:49:07.417Z,100874.84
2023-03-06T05:51:15.340Z,100874.84
2023-03-06T05:53:20.257Z,100882.63
2023-03-06T05:55:25.384Z,100882.63
2023-03-06T05:57:30.376Z,100892.09
2023-03-06T05:59:36.336Z,100888.59
2023-03-06T06:01:41.410Z,100891.22
2023-03-06T06:03:49.198Z,100886.84
2023-03-06T06:05:54.818Z,100895.47
2023-03-06T06:07:59.631Z,100890.25
2023-03-06T06:10:04.718Z,100888.50
2023-03-06T06:12:10.369Z,100888.47
2023-03-06T06:14:15.216Z,100886.72
2023-03-06T06:16:20.554Z,100891.03
2023-03-06T06:18:25.323Z,100886.75
2023-03-06T06:20:32.798Z,100887.59
2023-03-06T06:22:41.842Z,100891.91
2023-03-06T06:24:47.024Z,100884.16
2023-03-06T06:26:54.099Z,100885.84
2023-03-06T06:29:00.252Z,100885.00
2023-03-06T06:31:11.142Z,100885.84
2023-03-06T06:33:16.209Z,100886.72
2023-03-06T06:35:21.411Z,100889.31
2023-03-06T06:37:28.855Z,100878.94
2023-03-06T06:39:33.683Z,100891.03
2023-03-06T06:41:55.270Z,100888.44
2023-03-06T06:44:04.055Z,100888.44
2023-03-06T06:46:36.472Z,100892.75
2023-03-06T06:48:33.831Z,100897.94
2023-03-06T06:50:38.788Z,100894.47
2023-03-06T06:52:46.404Z,100891.03
2023-03-06T06:54:51.955Z,100884.94
2023-03-06T06:56:56.965Z,100884.09
2023-03-06T06:59:15.710Z,100893.59
2023-03-06T07:01:21.460Z,100886.66
2023-03-06T07:03:26.919Z,100892.72
2023-03-06T07:05:31.628Z,100891.00
2023-03-06T07:07:37.729Z,100893.59
2023-03-06T07:09:45.261Z,100897.00
2023-03-06T07:11:50.126Z,100896.16
2023-03-06T07:13:56.646Z,100892.69
2023-03-06T07:16:01.602Z,100894.44
2023-03-06T07:18:06.544Z,100885.78
2023-03-06T07:20:13.315Z,100889.19
2023-03-06T07:22:18.368Z,100896.09
2023-03-06T07:24:22.979Z,100881.38
2023-03-06T07:26:33.515Z,100892.59
2023-03-06T07:28:51.599Z,100887.38
2023-03-06T07:30:57.549Z,100889.06
2023-03-06T07:33:02.886Z,100884.72
2023-03-06T07:35:19.860Z,100885.50
2023-03-06T07:37:24.929Z,100883.75
2023-03-06T07:39:30.515Z,100882.81
2023-03-06T07:41:38.260Z,100887.09
2023-03-06T07:43:45.317Z,100881.88
2023-03-06T07:45:50.054Z,100881.81
2023-03-06T07:47:55.194Z,100882.66
2023-03-06T07:50:03.267Z,100878.28
2023-03-06T07:52:08.513Z,100876.53
2023-03-06T07:54:13.449Z,100879.09
2023-03-06T07:56:18.524Z,100879.03
2023-03-06T07:58:26.336Z,100880.72
2023-03-06T08:00:31.197Z,100875.38
2023-03-06T08:02:35.854Z,100884.75
2023-03-06T08:04:40.927Z,100888.06
2023-03-06T08:06:45.756Z,100879.28
2023-03-06T08:08:52.492Z,100883.59
2023-03-06T08:10:57.364Z,100878.41
2023-03-06T08:13:02.244Z,100886.06
2023-03-06T08:15:12.353Z,100884.28
2023-03-06T08:17:17.234Z,100880.81
2023-03-06T08:19:23.421Z,100879.97
2023-03-06T08:21:29.838Z,100886.81
2023-03-06T08:23:36.429Z,100888.44
2023-03-06T08:25:43.814Z,100882.13
2023-03-06T08:27:49.616Z,100883.97
2023-03-06T08:29:54.328Z,100883.13
2023-03-06T08:32:01.841Z,100877.97
2023-03-06T08:34:08.705Z,100887.44
2023-03-06T08:36:13.783Z,100883.94
2023-03-06T08:38:19.279Z,100883.88
2023-03-06T08:40:27.134Z,100881.16
2023-03-06T08:42:32.005Z,100887.13
2023-03-06T08:44:37.079Z,100886.38
2023-03-06T08:46:46.957Z,100887.97
2023-03-06T08:48:55.038Z,100886.13
2023-03-06T08:51:00.032Z,100879.28
2023-03-06T08:53:05.251Z,100886.84
2023-03-06T08:55:15.128Z,100880.69
2023-03-06T08:57:20.656Z,100887.47
2023-03-06T08:59:25.698Z,100891.09
2023-03-06T09:01:32.570Z,100885.88
2023-03-06T09:03:39.629Z,100895.28
2023-03-06T09:05:47.329Z,100880.63
2023-03-06T09:07:53.366Z,100892.59
2023-03-06T09:09:59.612Z,100886.63
2023-03-06T09:12:04.877Z,100884.94
2023-03-06T09:14:11.532Z,100885.78
2023-03-06T09:16:16.576Z,100883.78
2023-03-06T09:18:21.551Z,100887.97
2023-03-06T09:20:26.745Z,100887.22
2023-03-06T09:22:34.652Z,100888.84
2023-03-06T09:24:44.903Z,100889.66
2023-03-06T09:26:51.588Z,100886.91
2023-03-06T09:28:56.911Z,100892.06
2023-03-06T09:31:05.682Z,100888.81
2023-03-06T09:33:11.279Z,100895.91
2023-03-06T09:35:18.823Z,100888.13
2023-03-06T09:37:23.857Z,100889.66
2023-03-06T09:39:33.985Z,100883.84
2023-03-06T09:41:40.734Z,100891.66
2023-03-06T09:43:48.525Z,100881.44
2023-03-06T09:45:53.372Z,100883.16
2023-03-06T09:48:04.234Z,100884.06
2023-03-06T09:50:21.695Z,100876.28
2023-03-06T09:52:43.984Z,100886.97
2023-03-06T09:54:56.515Z,100882.50
2023-03-06T09:57:01.288Z,100880.50
2023-03-06T09:59:15.572Z,100883.59
2023-03-06T10:01:25.499Z,100878.97
2023-03-06T10:03:34.052Z,100875.25
2023-03-06T10:05:45.348Z,100867.53
2023-03-06T10:07:56.462Z,100870.75
2023-03-06T10:10:06.869Z,100871.19
2023-03-06T10:12:24.890Z,100867.81
2023-03-06T10:14:38.165Z,100870.97
2023-03-06T10:16:45.036Z,100871.16
2023-03-06T10:18:50.036Z,100870.13
2023-03-06T10:21:17.095Z,100860.22
2023-03-06T10:23:45.644Z,100856.66
2023-03-06T10:26:00.005Z,100863.88
2023-03-06T10:28:12.949Z,100858.66
2023-03-06T10:30:28.863Z,100853.06
2023-03-06T10:32:49.088Z,100856.31
2023-03-06T10:34:54.872Z,100851.72
2023-03-06T10:37:01.615Z,100848.50
2023-03-06T10:39:17.220Z,100843.81
2023-03-06T10:41:30.716Z,100848.75
2023-03-06T10:43:36.752Z,100837.91
2023-03-06T10:45:50.503Z,100833.44
2023-03-06T10:48:13.689Z,100829.69
2023-03-06T10:50:26.654Z,100835.16
2023-03-06T10:52:34.208Z,100830.38
2023-03-06T10:54:42.327Z,100821.13
2023-03-06T10:56:50.883Z,100829.31
2023-03-06T10:59:10.659Z,100826.53
2023-03-06T11:01:23.536Z,100828.53
2023-03-06T11:03:28.564Z,100824.41
2023-03-06T11:05:33.370Z,100812.72
2023-03-06T11:07:39.316Z,100818.88
2023-03-06T11:09:48.318Z,100811.28
2023-03-06T11:12:16.101Z,100813.44
2023-03-06T11:14:23.245Z,100808.84
2023-03-06T11:16:31.262Z,100810.28
2023-03-06T11:18:42.137Z,100802.38
2023-03-06T11:20:52.419Z,100796.75
2023-03-06T11:23:02.109Z,100802.13
2023-03-06T11:25:07.968Z,100802.94
2023-03-06T11:27:25.155Z,100791.25
2023-03-06T11:29:38.984Z,100808.44
2023-03-06T11:31:51.043Z,100802.47
2023-03-06T11:33:59.459Z,100798.13
2023-03-06T11:36:14.283Z,100798.13
2023-03-06T11:38:24.593Z,100798.69
2023-03-06T11:40:39.138Z,100789.59
2023-03-06T11:42:52.784Z,100795.44
2023-03-06T11:45:07.012Z,100792.22
2023-03-06T11:47:19.629Z,100790.47
2023-03-06T11:49:29.180Z,100790.56
2023-03-06T11:51:38.317Z,100798.78
2023-03-06T11:53:43.820Z,100787.31
2023-03-06T11:55:59.621Z,100787.69
2023-03-06T11:58:24.976Z,100784.69
2023-03-06T12:00:43.691Z,100777.09
2023-03-06T12:03:32.604Z,100771.78
2023-03-06T12:05:40.428Z,100774.34
2023-03-06T12:07:53.929Z,100772.00
2023-03-06T12:12:24.786Z,100770.97
2023-03-06T12:14:49.680Z,100759.97
2023-03-06T12:17:18.401Z,100751.84
2023-03-06T12:19:49.952Z,100756.28
2023-03-06T12:22:10.459Z,100753.31
2023-03-06T12:24:35.586Z,100751.09
2023-03-06T12:27:01.630Z,100749.53
2023-03-06T12:29:31.520Z,100737.84
2023-03-06T12:31:58.726Z,100738.09
2023-03-06T12:34:17.085Z,100729.72
2023-03-06T12:36:36.663Z,100728.88
2023-03-06T12:39:01.969Z,100724.91
2023-03-06T12:41:21.377Z,100723.56
2023-03-06T12:43:52.701Z,100725.16
2023-03-06T12:46:01.142Z,100721.84
2023-03-06T12:48:17.700Z,100716.56
2023-03-06T12:50:27.311Z,100719.47
2023-03-06T12:52:37.008Z,100715.53
2023-03-06T12:54:44.019Z,100719.31
2023-03-06T12:56:51.322Z,100715.19
2023-03-06T12:58:58.699Z,100714.53
2023-03-06T13:01:07.916Z,100707.47
2023-03-06T13:03:21.990Z,100704.84
2023-03-06T13:05:43.800Z,100695.78
2023-03-06T13:08:03.114Z,100690.13
2023-03-06T13:10:18.832Z,100696.63
2023-03-06T13:12:49.721Z,100691.19
2023-03-06T13:15:02.505Z,100688.78
2023-03-06T13:17:35.997Z,100681.66
2023-03-06T13:19:43.680Z,100681.16
2023-03-06T13:22:28.731Z,100670.31
2023-03-06T13:24:37.240Z,100668.59
2023-03-06T13:26:55.772Z,100663.69
2023-03-06T13:29:01.321Z,100661.22
2023-03-06T13:31:10.621Z,100660.84
2023-03-06T13:33:54.519Z,100649.88
2023-03-06T13:36:24.707Z,100654.34
2023-03-06T13:38:38.253Z,100652.44
2023-03-06T13:40:43.037Z,100657.78
2023-03-06T13:43:06.482Z,100659.72
2023-03-06T13:45:16.974Z,100656.38
2023-03-06T13:48:01.385Z,100669.72
2023-03-06T13:50:03.973Z,100665.53
2023-03-06T13:52:21.159Z,100664.56
2023-03-06T13:54:35.634Z,100659.19
2023-03-06T13:57:10.381Z,100658.91
2023-03-06T14:00:03.199Z,100656.81
2023-03-06T14:02:36.718Z,100646.78
2023-03-06T14:04:54.818Z,100646.88
2023-03-06T14:07:30.873Z,100644.28
2023-03-06T14:09:38.655Z,100643.19
2023-03-06T14:12:11.309Z,100638.78
2023-03-06T14:14:16.352Z,100643.84
2023-03-06T14:16:24.354Z,100629.88
2023-03-06T14:18:34.632Z,100632.63
2023-03-06T14:20:46.661Z,100622.19
2023-03-06T14:22:54.809Z,100626.69
2023-03-06T14:25:08.453Z,100624.78
2023-03-06T14:27:20.512Z,100616.41
2023-03-06T14:29:28.195Z,100617.78
2023-03-06T14:31:51.863Z,100602.44
2023-03-06T14:34:06.388Z,100598.53
2023-03-06T14:36:18.735Z,100613.00
2023-03-06T14:38:32.834Z,100600.41
2023-03-06T14:40:40.158Z,100592.53
2023-03-06T14:42:45.174Z,100603.44
2023-03-06T14:44:52.484Z,100594.59
2023-03-06T14:46:58.827Z,100597.41
2023-03-06T14:49:04.085Z,100596.19
2023-03-06T14:51:11.850Z,100594.19
2023-03-06T14:53:20.456Z,100603.50
2023-03-06T14:55:32.633Z,100593.22
2023-03-06T14:57:45.192Z,100580.00
2023-03-06T14:59:55.956Z,100592.94
2023-03-06T15:02:08.379Z,100589.22
2023-03-06T15:04:22.320Z,100585.72
2023-03-06T15:06:33.363Z,100599.88
2023-03-06T15:08:41.387Z,100587.97
2023-03-06T15:11:00.443Z,100584.59
2023-03-06T15:13:13.663Z,100580.91
2023-03-06T15:15:29.494Z,100566.34
2023-03-06T15:17:35.690Z,100565.69
2023-03-06T15:19:44.465Z,100570.22
2023-03-06T15:21:51.603Z,100561.34
2023-03-06T15:23:58.313Z,100559.09
2023-03-06T15:26:09.301Z,100546.88
2023-03-06T15:28:28.657Z,100558.97
2023-03-06T15:30:35.713Z,100556.28
2023-03-06T15:32:42.976Z,100554.50
2023-03-06T15:34:48.338Z,100554.00
2023-03-06T15:36:58.461Z,100577.50
2023-03-06T15:39:03.465Z,100554.75
2023-03-06T15:41:24.369Z,100553.31
2023-03-06T15:43:30.282Z,100548.13
2023-03-06T15:45:38.126Z,100535.28
2023-03-06T15:47:43.918Z,100531.03
2023-03-06T15:49:53.307Z,100530.09
2023-03-06T15:51:58.057Z,100517.97
2023-03-06T15:54:11.960Z,100518.56
2023-03-06T15:56:22.996Z,100516.56
2023-03-06T15:58:30.643Z,100511.41
2023-03-06T16:00:38.642Z,100517.31
2023-03-06T16:02:44.019Z,100511.28
2023-03-06T16:04:49.425Z,100502.53
2023-03-06T16:06:54.350Z,100495.75
2023-03-06T16:08:59.112Z,100497.47
2023-03-06T16:11:03.958Z,100491.41
2023-03-06T16:13:19.050Z,100487.25
2023-03-06T16:15:28.405Z,100497.75
2023-03-06T16:17:33.424Z,100505.63
2023-03-06T16:19:39.130Z,100498.91
2023-03-06T16:21:44.295Z,100494.94
2023-03-06T16:23:49.503Z,100503.50
2023-03-06T16:25:54.285Z,100492.56
2023-03-06T16:28:01.150Z,100485.03
2023-03-06T16:30:10.046Z,100494.88
2023-03-06T16:32:15.123Z,100488.81
2023-03-06T16:34:20.797Z,100495.81
2023-03-06T16:36:27.596Z,100487.28
2023-03-06T16:38:32.317Z,100492.59
2023-03-06T16:40:41.500Z,100482.13
2023-03-06T16:42:49.318Z,100469.34
2023-03-06T16:44:53.959Z,100469.38
2023-03-06T16:47:03.882Z,100465.25
2023-03-06T16:49:08.793Z,100466.16
2023-03-06T16:51:17.698Z,100461.81
2023-03-06T16:53:22.411Z,100459.94
2023-03-06T16:55:28.455Z,100461.94
2023-03-06T16:57:35.721Z,100462.75
2023-03-06T16:59:40.500Z,100456.75
2023-03-06T17:01:45.745Z,100460.25
2023-03-06T17:03:53.329Z,100455.13
2023-03-06T17:05:58.200Z,100452.47
2023-03-06T17:08:03.417Z,100455.06
2023-03-06T17:10:11.730Z,100445.59
2023-03-06T17:12:16.435Z,100436.97
2023-03-06T17:14:21.290Z,100449.16
2023-03-06T17:16:25.941Z,100440.47
2023-03-06T17:18:31.905Z,100443.94
2023-03-06T17:20:39.193Z,100436.16
2023-03-06T17:22:44.382Z,100429.41
2023-03-06T17:24:52.295Z,100438.06
2023-03-06T17:26:57.036Z,100426.00
2023-03-06T17:29:01.836Z,100425.94
2023-03-06T17:31:14.850Z,100420.00
2023-03-06T17:33:19.835Z,100419.16
2023-03-06T17:35:24.527Z,100420.84
2023-03-06T17:37:31.967Z,100413.13
2023-03-06T17:39:37.486Z,100411.34
2023-03-06T17:41:43.149Z,100410.47
2023-03-06T17:43:51.098Z,100416.41
2023-03-06T17:45:55.825Z,100408.81
2023-03-06T17:48:00.886Z,100410.47
2023-03-06T17:50:05.745Z,100407.00
2023-03-06T17:52:10.952Z,100403.59
2023-03-06T17:54:18.416Z,100401.03
2023-03-06T17:56:23.517Z,100388.03
2023-03-06T17:58:29.231Z,100394.16
2023-03-06T18:00:33.970Z,100387.28
2023-03-06T18:02:39.355Z,100391.50
2023-03-06T18:04:47.017Z,100395.91
2023-03-06T18:06:51.874Z,100384.63
2023-03-06T18:08:57.660Z,100380.41
2023-03-06T18:11:06.852Z,100380.41
2023-03-06T18:13:12.132Z,100369.16
2023-03-06T18:15:16.829Z,100364.03
2023-03-06T18:17:21.710Z,100365.72
2023-03-06T18:19:26.511Z,100363.06
2023-03-06T18:21:33.621Z,100357.81
2023-03-06T18:23:38.801Z,100358.63
2023-03-06T18:25:43.715Z,100351.78
2023-03-06T18:27:51.120Z,100348.19
2023-03-06T18:29:55.957Z,100345.66
2023-03-06T18:32:03.703Z,100336.13
2023-03-06T18:34:13.536Z,100326.50
2023-03-06T18:36:21.498Z,100327.47
2023-03-06T18:38:26.200Z,100329.19
2023-03-06T18:40:30.928Z,100324.75
2023-03-06T18:42:39.706Z,100316.97
2023-03-06T18:44:47.857Z,100313.44
2023-03-06T18:46:52.604Z,100314.22
2023-03-06T18:48:57.851Z,100309.03
2023-03-06T18:51:06.840Z,100310.72
2023-03-06T18:53:11.885Z,100295.97
2023-03-06T18:55:16.717Z,100299.41
2023-03-06T18:57:21.778Z,100293.25
2023-03-06T18:59:26.653Z,100290.59
2023-03-06T19:01:35.656Z,100282.88
2023-03-06T19:03:40.530Z,100281.06
2023-03-06T19:05:47.860Z,100278.31
2023-03-06T19:07:52.694Z,100279.16
2023-03-06T19:09:57.669Z,100290.47
2023-03-06T19:12:03.670Z,100280.03
2023-03-06T19:14:11.029Z,100267.06
2023-03-06T19:16:21.445Z,100267.00
2023-03-06T19:18:30.524Z,100275.72
2023-03-06T19:20:35.430Z,100264.47
2023-03-06T19:22:40.495Z,100269.59
2023-03-06T19:24:46.927Z,100262.63
2023-03-06T19:26:59.898Z,100256.41
2023-03-06T19:29:04.557Z,100258.97
2023-03-06T19:31:14.410Z,100247.47
2023-03-06T19:33:19.350Z,100253.28
2023-03-06T19:35:30.009Z,100240.25
2023-03-06T19:37:36.678Z,100243.34
2023-03-06T19:39:44.270Z,100245.94
2023-03-06T19:41:49.931Z,100242.44
2023-03-06T19:43:57.310Z,100234.63
2023-03-06T19:46:02.352Z,100228.41
2023-03-06T19:48:10.350Z,100224.00
2023-03-06T19:50:15.334Z,100224.69
2023-03-06T19:52:25.210Z,100222.91
2023-03-06T19:54:32.727Z,100219.41
2023-03-06T19:56:40.922Z,100215.88
2023-03-06T19:58:46.724Z,100217.47
2023-03-06T20:00:51.561Z,100207.03
2023-03-06T20:02:56.530Z,100212.25
2023-03-06T20:05:01.232Z,100206.97
2023-03-06T20:07:07.899Z,100196.50
2023-03-06T20:09:16.349Z,100199.91
2023-03-06T20:11:22.703Z,100194.69
2023-03-06T20:13:29.688Z,100193.00
2023-03-06T20:15:36.900Z,100186.09
2023-03-06T20:17:42.882Z,100186.97
2023-03-06T20:19:50.232Z,100189.59
2023-03-06T20:21:55.954Z,100185.28
2023-03-06T20:24:01.384Z,100177.31
2023-03-06T20:26:12.094Z,100181.69
2023-03-06T20:28:17.145Z,100178.22
2023-03-06T20:30:23.400Z,100174.91
2023-03-06T20:32:31.096Z,100182.69
2023-03-06T20:34:38.880Z,100183.56
2023-03-06T20:36:47.515Z,100175.00
2023-03-06T20:38:55.601Z,100174.13
2023-03-06T20:41:00.747Z,100169.91
2023-03-06T20:43:08.298Z,100167.34
2023-03-06T20:45:15.673Z,100158.66
2023-03-06T20:47:20.474Z,100161.31
2023-03-06T20:49:27.309Z,100162.09
2023-03-06T20:51:33.783Z,100154.38
2023-03-06T20:53:46.349Z,100148.25
2023-03-06T20:55:54.961Z,100153.41
2023-03-06T20:57:59.912Z,100157.88
2023-03-06T21:00:09.524Z,100160.44
2023-03-06T21:02:15.062Z,100158.72
2023-03-06T21:04:22.768Z,100153.44
2023-03-06T21:06:30.880Z,100166.53
2023-03-06T21:08:38.052Z,100158.72
2023-03-06T21:10:49.199Z,100158.72
2023-03-06T21:12:54.688Z,100166.38
2023-03-06T21:14:59.661Z,100158.63
2023-03-06T21:17:16.210Z,100162.97
2023-03-06T21:19:21.586Z,100157.50
2023-03-06T21:21:33.553Z,100158.38
2023-03-06T21:23:43.603Z,100168.91
2023-03-06T21:25:54.988Z,100167.91
2023-03-06T21:28:06.499Z,100166.44
2023-03-06T21:30:17.501Z,100162.97
2023-03-06T21:32:27.120Z,100160.22
2023-03-06T21:34:34.083Z,100162.88
2023-03-06T21:36:43.036Z,100165.53
2023-03-06T21:38:50.611Z,100156.84
2023-03-06T21:40:56.267Z,100156.75
2023-03-06T21:43:01.078Z,100156.91
2023-03-06T21:45:10.891Z,100153.41
2023-03-06T21:47:17.672Z,100156.03
2023-03-06T21:49:26.279Z,100143.94
2023-03-06T21:51:35.317Z,100136.13
2023-03-06T21:53:41.388Z,100134.38
2023-03-06T21:55:46.292Z,100128.25
2023-03-06T21:57:54.806Z,100129.19
2023-03-06T22:00:04.753Z,100133.56
2023-03-06T22:02:14.347Z,100135.28
2023-03-06T22:04:19.373Z,100125.69
2023-03-06T22:06:33.376Z,100129.09
2023-03-06T22:08:38.298Z,100123.94
2023-03-06T22:10:44.907Z,100119.47
2023-03-06T22:12:52.354Z,100116.09
2023-03-06T22:14:59.073Z,100113.38
2023-03-06T22:17:04.477Z,100115.97
2023-03-06T22:19:09.359Z,100110.84
2023-03-06T22:21:18.152Z,100106.41
2023-03-06T22:23:26.378Z,100107.97
2023-03-06T22:25:33.038Z,100097.56
2023-03-06T22:27:42.268Z,100096.72
2023-03-06T22:29:51.953Z,100099.16
2023-03-06T22:32:00.277Z,100108.72
2023-03-06T22:34:06.712Z,100107.84
2023-03-06T22:36:15.864Z,100108.78
2023-03-06T22:38:20.649Z,100108.69
2023-03-06T22:40:28.662Z,100106.91
2023-03-06T22:42:33.514Z,100101.94
2023-03-06T22:44:40.566Z,100103.81
2023-03-06T22:46:45.744Z,100097.66
2023-03-06T22:48:50.587Z,100105.34
2023-03-06T22:50:55.733Z,100100.19
2023-03-06T22:53:00.733Z,100099.31
2023-03-06T22:55:05.482Z,100097.66
2023-03-06T22:57:13.461Z,100102.03
2023-03-06T22:59:18.891Z,100102.03
2023-03-06T23:01:27.416Z,100105.56
2023-03-06T23:03:32.148Z,100096.72
2023-03-06T23:05:39.720Z,100097.66
2023-03-06T23:07:47.612Z,100108.84
2023-03-06T23:09:52.733Z,100107.97
2023-03-06T23:11:57.654Z,100108.81
2023-03-06T23:14:05.989Z,100110.50
2023-03-06T23:16:14.728Z,100102.03
2023-03-06T23:18:20.315Z,100103.91
2023-03-06T23:20:27.752Z,100103.06
2023-03-06T23:22:33.036Z,100104.88
2023-03-06T23:24:38.431Z,100103.69
2023-03-06T23:26:45.541Z,100102.84
2023-03-06T23:28:51.298Z,100096.13
2023-03-06T23:30:58.837Z,100097.84
2023-03-06T23:33:03.682Z,100099.59
2023-03-06T23:35:12.161Z,100099.59
2023-03-06T23:37:18.105Z,100091.84
2023-03-06T23:39:22.869Z,100094.47
2023-03-06T23:41:28.746Z,100090.97
2023-03-06T23:43:35.647Z,100089.97
2023-03-06T23:45:42.933Z,100098.69
2023-03-06T23:47:50.508Z,100097.00
2023-03-06T23:49:57.234Z,100096.91
2023-03-06T23:52:06.376Z,100096.09
2023-03-06T23:54:13.215Z,100094.16
2023-03-06T23:56:21.850Z,100090.03
2023-03-06T23:58:26.555Z,100093.47
